Time;durP1;ratioP1;P1;durP2;ratioP2;P2;SDS_P1;SDS_P2;PMS_P1;PMS_P2;Temp;Humidity;BMP_temperature;BMP_pressure;BME280_temperature;BME280_humidity;BME280_pressure;Samples;Min_cycle;Max_cycle;Signal;HPM_P1;HPM_P2
2023/04/16 00:00:16;;;;;;;110.40;65.97;;;10.40;99.90;;;;;;4991299;28;20095;-85
2023/04/16 00:02:42;;;;;;;155.45;95.50;;;10.20;99.90;;;;;;5007747;28;20072;-85
2023/04/16 00:05:08;;;;;;;95.25;61.13;;;11.70;99.90;;;;;;4991345;28;20540;-85
2023/04/16 00:07:34;;;;;;;149.40;102.30;;;10.40;99.90;;;;;;5001733;28;20065;-85
2023/04/16 00:09:59;;;;;;;155.32;92.55;;;10.30;99.90;;;;;;4978224;28;20040;-85
2023/04/16 00:12:25;;;;;;;131.75;80.65;;;10.20;99.90;;;;;;4972692;28;20247;-85
2023/04/16 00:14:51;;;;;;;145.52;91.53;;;10.30;99.90;;;;;;4988629;28;20080;-85
2023/04/16 00:17:17;;;;;;;128.88;80.20;;;10.40;99.90;;;;;;4972390;28;20041;-85
2023/04/16 00:19:42;;;;;;;146.52;95.28;;;10.20;99.90;;;;;;5001358;28;20058;-85
2023/04/16 00:22:09;;;;;;;115.97;76.28;;;10.50;99.90;;;;;;4992630;28;20145;-85
2023/04/16 00:24:34;;;;;;;121.47;77.90;;;10.40;99.90;;;;;;4994898;28;20042;-85
2023/04/16 00:27:00;;;;;;;123.57;92.95;;;10.40;99.90;;;;;;5010782;28;20069;-85
2023/04/16 00:29:27;;;;;;;110.38;75.53;;;10.40;99.90;;;;;;5010953;28;20065;-85
2023/04/16 00:31:53;;;;;;;111.00;75.20;;;10.40;99.90;;;;;;4994175;28;20046;-84
2023/04/16 00:34:18;;;;;;;138.05;91.68;;;10.40;99.90;;;;;;4994689;28;20145;-85
2023/04/16 00:36:44;;;;;;;112.78;84.22;;;10.40;99.90;;;;;;5009960;28;20042;-85
2023/04/16 00:39:10;;;;;;;95.43;65.20;;;10.50;99.90;;;;;;4987736;28;20088;-85
2023/04/16 00:41:37;;;;;;;105.82;76.82;;;10.40;99.90;;;;;;4982761;28;20081;-85
2023/04/16 00:44:04;;;;;;;116.43;88.15;;;10.40;99.90;;;;;;4975481;28;20042;-85
2023/04/16 00:46:30;;;;;;;99.90;79.55;;;10.50;99.90;;;;;;4976458;28;20639;-85
2023/04/16 00:48:57;;;;;;;94.40;63.42;;;10.60;99.90;;;;;;4979273;28;20034;-85
2023/04/16 00:51:23;;;;;;;144.05;90.10;;;10.60;99.90;;;;;;5003014;28;20197;-85
2023/04/16 00:53:49;;;;;;;98.43;70.55;;;10.60;99.90;;;;;;4988871;28;20038;-85
2023/04/16 00:56:15;;;;;;;113.38;82.15;;;10.60;99.90;;;;;;4975590;28;20066;-85
2023/04/16 00:58:41;;;;;;;103.93;77.57;;;10.50;99.90;;;;;;4996856;28;20528;-85
2023/04/16 01:01:06;;;;;;;112.15;83.20;;;10.50;99.90;;;;;;4988630;28;20045;-85
2023/04/16 01:03:38;;;;;;;126.30;84.00;;;10.50;99.90;;;;;;4991234;28;20054;-85
2023/04/16 01:06:06;;;;;;;105.78;77.68;;;11.00;99.90;;;;;;4998273;28;20066;-85
2023/04/16 01:08:32;;;;;;;102.70;68.82;;;10.90;99.90;;;;;;4998806;28;20053;-85
2023/04/16 01:10:57;;;;;;;113.05;80.75;;;11.90;99.90;;;;;;4978473;28;20506;-85
2023/04/16 01:13:23;;;;;;;124.65;82.07;;;10.50;99.90;;;;;;4990073;28;20042;-85
2023/04/16 01:15:48;;;;;;;112.63;69.75;;;10.50;99.90;;;;;;5010345;28;20510;-85
2023/04/16 01:18:19;;;;;;;127.30;88.20;;;10.70;99.90;;;;;;4992879;28;20080;-85
2023/04/16 01:20:46;;;;;;;113.95;66.53;;;10.50;99.90;;;;;;5009498;28;20053;-84
2023/04/16 01:23:12;;;;;;;125.38;83.75;;;10.70;99.90;;;;;;4998743;28;20080;-85
2023/04/16 01:25:38;;;;;;;111.50;83.05;;;10.70;99.90;;;;;;4974977;28;20110;-85
2023/04/16 01:28:04;;;;;;;113.10;72.47;;;11.70;99.90;;;;;;4982205;28;20103;-85
2023/04/16 01:30:30;;;;;;;98.45;67.68;;;10.50;99.90;;;;;;5009581;28;20040;-85
2023/04/16 01:32:56;;;;;;;104.80;69.65;;;10.70;99.90;;;;;;5009014;28;20497;-85
2023/04/16 01:35:23;;;;;;;127.10;91.45;;;10.60;99.90;;;;;;4986527;28;20061;-85
2023/04/16 01:37:49;;;;;;;104.68;69.05;;;11.30;99.90;;;;;;4995278;28;20548;-84
2023/04/16 01:40:15;;;;;;;132.15;81.82;;;10.50;99.90;;;;;;4976705;28;20086;-85
2023/04/16 01:42:41;;;;;;;107.00;67.05;;;10.60;99.90;;;;;;4990877;28;20073;-85
2023/04/16 01:45:07;;;;;;;107.45;83.88;;;10.70;99.90;;;;;;4974490;28;20124;-85
2023/04/16 01:47:32;;;;;;;78.75;57.63;;;10.60;99.90;;;;;;4975494;28;20060;-85
2023/04/16 01:49:59;;;;;;;95.53;73.03;;;12.30;99.90;;;;;;4989260;28;20078;-85
2023/04/16 01:52:24;;;;;;;135.35;90.63;;;12.80;99.90;;;;;;5007598;28;20077;-85
2023/04/16 01:54:50;;;;;;;114.70;85.65;;;10.80;99.90;;;;;;5009914;28;20171;-85
2023/04/16 01:57:15;;;;;;;129.20;84.15;;;10.70;99.90;;;;;;5009722;28;20030;-85
2023/04/16 01:59:41;;;;;;;109.40;65.35;;;10.80;99.90;;;;;;4987082;28;20046;-85
2023/04/16 02:02:11;;;;;;;110.95;80.35;;;10.90;99.90;;;;;;5008416;28;20044;-85
2023/04/16 02:04:38;;;;;;;92.45;66.60;;;10.80;99.90;;;;;;5016834;28;20509;-85
2023/04/16 02:07:04;;;;;;;85.57;62.90;;;10.60;99.90;;;;;;4989230;28;20081;-85
2023/04/16 02:09:32;;;;;;;121.53;85.00;;;11.20;99.90;;;;;;4991604;28;20042;-84
2023/04/16 02:11:58;;;;;;;118.20;83.55;;;10.80;99.90;;;;;;5009841;28;20046;-85
2023/04/16 02:14:24;;;;;;;103.68;78.22;;;10.90;99.90;;;;;;4984078;28;20036;-85
2023/04/16 02:16:50;;;;;;;116.93;81.22;;;10.70;99.90;;;;;;4986836;28;20033;-85
2023/04/16 02:19:16;;;;;;;131.95;79.40;;;12.80;99.90;;;;;;4993397;28;20034;-85
2023/04/16 02:21:42;;;;;;;162.15;104.57;;;12.40;99.90;;;;;;5002525;28;20092;-85
2023/04/16 02:24:08;;;;;;;145.35;91.25;;;11.00;99.90;;;;;;4992956;28;20049;-85
2023/04/16 02:26:33;;;;;;;145.00;99.35;;;10.80;99.90;;;;;;4993072;28;20038;-85
2023/04/16 02:28:59;;;;;;;117.72;75.07;;;10.90;99.90;;;;;;5002896;28;20042;-85
2023/04/16 02:31:25;;;;;;;113.63;67.75;;;10.80;99.90;;;;;;4992134;28;20670;-85
2023/04/16 02:33:50;;;;;;;145.20;88.50;;;10.90;99.90;;;;;;4992487;28;20084;-85
2023/04/16 02:36:16;;;;;;;125.10;66.05;;;10.90;99.90;;;;;;5007774;28;20046;-85
2023/04/16 02:38:42;;;;;;;143.85;96.38;;;12.40;99.90;;;;;;5002454;28;20054;-85
2023/04/16 02:41:07;;;;;;;104.35;53.38;;;10.80;99.90;;;;;;5001090;28;20075;-85
2023/04/16 02:43:33;;;;;;;138.23;88.07;;;12.50;99.90;;;;;;5009285;28;20046;-85
2023/04/16 02:45:58;;;;;;;150.73;99.80;;;11.00;99.90;;;;;;4992085;28;20124;-85
2023/04/16 02:48:25;;;;;;;141.15;96.45;;;11.00;99.90;;;;;;4983951;28;20125;-85
2023/04/16 02:50:51;;;;;;;135.77;84.32;;;10.80;99.90;;;;;;4996937;28;20052;-85
2023/04/16 02:53:16;;;;;;;132.18;82.35;;;12.70;99.90;;;;;;4991420;28;20034;-85
2023/04/16 02:55:52;;;;;;;130.90;90.72;;;10.70;99.90;;;;;;4992842;28;20481;-85
2023/04/16 02:58:25;;;;;;;147.10;101.18;;;10.80;99.90;;;;;;4985851;28;20042;-85
2023/04/16 03:00:52;;;;;;;120.88;88.00;;;12.60;99.90;;;;;;4991476;28;20046;-85
2023/04/16 03:03:17;;;;;;;154.65;98.50;;;12.90;99.90;;;;;;5008624;28;20033;-85
2023/04/16 03:05:43;;;;;;;109.78;70.05;;;12.60;99.90;;;;;;4991658;28;20501;-85
2023/04/16 03:08:09;;;;;;;112.05;77.57;;;10.90;99.90;;;;;;4991679;28;20044;-85
2023/04/16 03:10:35;;;;;;;138.27;86.50;;;11.10;99.90;;;;;;4982126;28;20046;-85
2023/04/16 03:13:01;;;;;;;131.30;86.18;;;10.80;99.90;;;;;;4973064;28;20038;-85
2023/04/16 03:15:27;;;;;;;153.95;98.30;;;12.00;99.90;;;;;;5006797;28;20121;-85
2023/04/16 03:17:53;;;;;;;116.05;73.72;;;10.90;99.90;;;;;;4991488;28;21004;-85
2023/04/16 03:20:19;;;;;;;173.15;108.50;;;11.40;99.90;;;;;;4991380;28;20041;-85
2023/04/16 03:22:45;;;;;;;140.02;90.20;;;11.10;99.90;;;;;;4991056;28;20553;-85
2023/04/16 03:25:11;;;;;;;126.50;81.70;;;11.10;99.90;;;;;;5007882;28;20041;-85
2023/04/16 03:27:40;;;;;;;129.57;93.05;;;10.90;99.90;;;;;;4977826;28;20116;-85
2023/04/16 03:30:13;;;;;;;181.23;124.10;;;12.10;99.90;;;;;;4988200;28;20108;-85
2023/04/16 03:32:39;;;;;;;113.53;46.70;;;11.20;99.90;;;;;;5008113;28;20077;-85
2023/04/16 03:35:06;;;;;;;139.93;84.43;;;12.00;99.90;;;;;;4991534;28;20424;-85
2023/04/16 03:37:32;;;;;;;131.15;76.78;;;11.00;99.90;;;;;;4995505;28;20525;-85
2023/04/16 03:39:57;;;;;;;134.55;67.50;;;11.20;99.90;;;;;;4988692;28;20560;-85
2023/04/16 03:42:23;;;;;;;109.55;70.22;;;11.70;99.90;;;;;;5008769;28;20046;-85
2023/04/16 03:44:49;;;;;;;123.65;70.55;;;11.40;99.90;;;;;;4992009;28;20045;-85
2023/04/16 03:47:14;;;;;;;152.88;85.85;;;11.40;99.90;;;;;;4991841;28;20085;-86
2023/04/16 03:49:40;;;;;;;160.15;87.10;;;11.30;99.90;;;;;;4995958;28;20038;-85
2023/04/16 03:52:06;;;;;;;149.90;89.05;;;11.20;99.90;;;;;;5004901;28;20091;-85
2023/04/16 03:54:31;;;;;;;139.65;90.78;;;11.20;99.90;;;;;;5007099;28;20077;-85
2023/04/16 03:56:57;;;;;;;143.38;90.28;;;11.00;99.90;;;;;;4975657;28;20034;-85
2023/04/16 03:59:22;;;;;;;121.18;69.28;;;11.00;99.90;;;;;;4984714;28;20040;-86
2023/04/16 04:01:48;;;;;;;183.88;112.20;;;11.00;99.90;;;;;;4995403;28;20410;-85
2023/04/16 04:04:14;;;;;;;144.32;103.35;;;11.00;99.90;;;;;;5011543;28;20099;-85
2023/04/16 04:06:39;;;;;;;158.73;91.75;;;11.30;99.90;;;;;;5010142;28;20046;-85
2023/04/16 04:09:05;;;;;;;144.38;86.10;;;12.60;99.90;;;;;;4987526;28;20042;-85
2023/04/16 04:11:31;;;;;;;148.23;97.85;;;10.90;99.90;;;;;;4980782;28;20046;-85
2023/04/16 04:13:57;;;;;;;165.00;111.00;;;11.20;99.90;;;;;;4976337;28;20470;-85
2023/04/16 04:16:22;;;;;;;144.23;86.55;;;11.20;99.90;;;;;;4975748;28;20042;-85
2023/04/16 04:18:48;;;;;;;168.48;88.88;;;11.90;99.90;;;;;;4988499;28;20439;-85
2023/04/16 04:21:14;;;;;;;143.15;82.20;;;11.00;99.90;;;;;;4993448;28;20104;-85
2023/04/16 04:23:41;;;;;;;162.52;97.43;;;13.00;99.90;;;;;;5011352;28;20049;-85
2023/04/16 04:26:07;;;;;;;174.77;116.53;;;11.20;99.90;;;;;;5011540;28;20069;-85
2023/04/16 04:28:33;;;;;;;162.38;107.68;;;11.40;99.90;;;;;;4993910;28;20049;-85
2023/04/16 04:31:00;;;;;;;147.52;77.10;;;13.20;99.90;;;;;;5010925;28;20457;-85
2023/04/16 04:33:26;;;;;;;177.35;104.60;;;12.70;99.90;;;;;;4994928;28;20092;-85
2023/04/16 04:35:52;;;;;;;129.85;63.45;;;11.00;99.90;;;;;;5009730;28;20449;-85
2023/04/16 04:38:19;;;;;;;125.53;73.05;;;11.40;99.90;;;;;;4994183;28;20088;-85
2023/04/16 04:40:47;;;;;;;126.30;76.38;;;13.00;99.90;;;;;;4994013;28;20525;-85
2023/04/16 04:43:13;;;;;;;146.20;89.20;;;11.30;99.90;;;;;;4991641;28;20046;-85
2023/04/16 04:45:39;;;;;;;155.35;104.10;;;12.20;99.90;;;;;;4993137;28;20544;-85
2023/04/16 04:48:05;;;;;;;133.52;87.40;;;12.70;99.90;;;;;;5011522;28;20548;-85
2023/04/16 04:50:31;;;;;;;149.48;95.63;;;11.10;99.90;;;;;;4997676;28;20066;-85
2023/04/16 04:52:57;;;;;;;146.55;96.43;;;11.40;99.90;;;;;;5010869;28;20497;-85
2023/04/16 04:55:22;;;;;;;139.10;83.65;;;12.80;99.90;;;;;;5010370;28;20112;-85
2023/04/16 04:57:48;;;;;;;152.00;99.95;;;11.10;99.90;;;;;;5010803;28;20091;-85
2023/04/16 05:00:14;;;;;;;117.05;70.05;;;11.10;99.90;;;;;;4992519;28;20126;-85
2023/04/16 05:02:40;;;;;;;147.38;96.78;;;11.40;99.90;;;;;;4994178;28;20137;-85
2023/04/16 05:05:06;;;;;;;138.25;92.97;;;12.70;99.90;;;;;;5009968;28;20409;-86
2023/04/16 05:07:31;;;;;;;121.78;79.30;;;11.20;99.90;;;;;;5008929;28;20034;-85
2023/04/16 05:09:57;;;;;;;105.47;63.15;;;11.40;99.90;;;;;;5001731;28;20168;-84
2023/04/16 05:12:23;;;;;;;125.40;79.40;;;11.10;99.90;;;;;;4994458;28;20494;-85
2023/04/16 05:14:48;;;;;;;167.45;105.95;;;11.10;99.90;;;;;;4995248;28;20038;-85
2023/04/16 05:17:14;;;;;;;137.80;98.15;;;13.10;99.90;;;;;;4990971;28;20048;-85
2023/04/16 05:19:39;;;;;;;106.63;58.17;;;11.10;99.90;;;;;;4999649;28;20105;-85
2023/04/16 05:22:05;;;;;;;137.93;96.07;;;13.20;99.90;;;;;;5009395;28;20041;-86
2023/04/16 05:24:30;;;;;;;139.95;94.47;;;13.00;99.90;;;;;;4994288;28;20042;-85
2023/04/16 05:26:56;;;;;;;138.05;95.75;;;11.40;99.90;;;;;;4993194;28;20585;-85
2023/04/16 05:29:22;;;;;;;105.13;70.22;;;11.20;99.90;;;;;;4975611;28;20094;-85
2023/04/16 05:31:48;;;;;;;118.68;79.82;;;11.20;99.90;;;;;;4992437;28;20406;-85
2023/04/16 05:34:13;;;;;;;145.27;102.05;;;11.50;99.90;;;;;;4994074;28;20096;-85
2023/04/16 05:36:39;;;;;;;126.72;84.00;;;11.20;99.90;;;;;;5008742;28;20156;-85
2023/04/16 05:39:05;;;;;;;113.60;81.55;;;12.70;99.90;;;;;;5005381;28;20662;-85
2023/04/16 05:41:30;;;;;;;119.63;76.25;;;11.30;99.90;;;;;;4999682;28;20050;-85
2023/04/16 05:43:56;;;;;;;104.47;62.80;;;11.50;99.90;;;;;;5012864;28;20077;-85
2023/04/16 05:46:21;;;;;;;99.55;67.30;;;12.60;99.90;;;;;;4998848;28;20425;-85
2023/04/16 05:48:47;;;;;;;124.97;86.78;;;12.70;99.90;;;;;;5006867;28;20103;-85
2023/04/16 05:51:16;;;;;;;105.50;73.07;;;11.40;99.90;;;;;;4989501;28;20038;-85
2023/04/16 05:53:42;;;;;;;98.95;61.65;;;12.50;99.90;;;;;;5002366;28;20520;-85
2023/04/16 05:56:07;;;;;;;105.93;80.47;;;12.50;99.90;;;;;;5008424;28;20494;-85
2023/04/16 05:58:33;;;;;;;97.70;73.60;;;13.30;99.90;;;;;;4983848;28;20065;-85
2023/04/16 06:01:00;;;;;;;115.43;88.80;;;11.60;99.90;;;;;;4989570;28;20048;-85
2023/04/16 06:03:25;;;;;;;98.57;85.28;;;11.50;99.90;;;;;;5004680;28;20049;-85
2023/04/16 06:05:51;;;;;;;88.53;72.10;;;11.80;99.90;;;;;;4984802;28;20042;-85
2023/04/16 06:08:17;;;;;;;108.30;79.38;;;11.60;99.90;;;;;;4989536;28;20045;-85
2023/04/16 06:10:45;;;;;;;113.60;77.70;;;11.50;99.90;;;;;;5002280;28;20073;-85
2023/04/16 06:13:10;;;;;;;110.00;78.93;;;13.50;99.90;;;;;;5005549;28;20042;-85
2023/04/16 06:15:36;;;;;;;109.43;71.20;;;11.40;99.90;;;;;;4973642;28;20043;-85
2023/04/16 06:18:01;;;;;;;138.35;93.15;;;12.00;99.90;;;;;;4982477;28;21049;-86
2023/04/16 06:20:27;;;;;;;99.70;69.25;;;11.50;99.90;;;;;;4999573;28;20041;-85
2023/04/16 06:22:54;;;;;;;123.78;91.13;;;11.70;99.90;;;;;;4980002;28;20066;-85
2023/04/16 06:25:20;;;;;;;121.07;94.18;;;11.50;99.90;;;;;;4986648;28;20046;-85
2023/04/16 06:27:45;;;;;;;99.15;79.50;;;11.70;99.90;;;;;;5004683;28;20253;-85
2023/04/16 06:30:13;;;;;;;111.63;86.85;;;12.40;99.90;;;;;;4990973;28;20317;-85
2023/04/16 06:32:38;;;;;;;128.63;81.80;;;11.50;99.90;;;;;;4988612;28;20053;-85
2023/04/16 06:35:05;;;;;;;98.75;65.60;;;11.60;99.90;;;;;;5006019;28;20042;-85
2023/04/16 06:37:30;;;;;;;117.38;90.43;;;11.50;99.90;;;;;;4988107;28;20119;-85
2023/04/16 06:39:56;;;;;;;111.10;73.95;;;11.60;99.90;;;;;;4999420;28;20042;-86
2023/04/16 06:42:22;;;;;;;116.90;88.13;;;11.50;99.90;;;;;;5002189;28;20041;-86
2023/04/16 06:44:47;;;;;;;100.22;82.07;;;13.20;99.90;;;;;;5000874;28;20508;-85
2023/04/16 06:47:13;;;;;;;85.38;62.17;;;12.20;99.90;;;;;;4985352;28;20041;-85
2023/04/16 06:49:39;;;;;;;107.88;86.22;;;11.50;99.90;;;;;;4997990;28;20068;-85
2023/04/16 06:52:05;;;;;;;87.57;64.57;;;11.60;99.90;;;;;;4995604;28;20041;-85
2023/04/16 06:54:30;;;;;;;101.95;75.75;;;11.90;99.90;;;;;;5017990;28;20037;-86
2023/04/16 06:56:56;;;;;;;93.38;73.80;;;13.10;99.90;;;;;;4989008;28;20136;-85
2023/04/16 06:59:22;;;;;;;88.60;56.95;;;11.80;99.90;;;;;;5003849;28;20042;-86
2023/04/16 07:01:47;;;;;;;103.68;77.05;;;13.50;99.90;;;;;;4973023;28;20081;-85
2023/04/16 07:04:13;;;;;;;140.50;100.07;;;13.30;99.90;;;;;;4973182;28;20053;-85
2023/04/16 07:06:38;;;;;;;124.65;89.47;;;11.70;99.90;;;;;;4977237;28;20134;-85
2023/04/16 07:09:04;;;;;;;100.03;76.13;;;11.90;99.90;;;;;;4992325;28;20054;-85
2023/04/16 07:11:30;;;;;;;93.63;60.30;;;13.20;99.90;;;;;;4991869;28;20124;-85
2023/04/16 07:13:56;;;;;;;111.05;74.55;;;11.90;99.90;;;;;;5002331;28;20050;-85
2023/04/16 07:16:22;;;;;;;89.40;65.03;;;11.80;99.90;;;;;;4983049;28;20046;-85
2023/04/16 07:18:48;;;;;;;115.63;79.60;;;13.40;99.90;;;;;;4991922;28;20402;-85
2023/04/16 07:21:13;;;;;;;95.80;68.70;;;11.80;99.90;;;;;;4984224;28;20041;-84
2023/04/16 07:23:39;;;;;;;132.52;91.20;;;13.20;99.90;;;;;;5008354;28;20168;-85
2023/04/16 07:26:05;;;;;;;118.90;68.93;;;12.80;99.90;;;;;;5008555;28;20180;-85
2023/04/16 07:28:30;;;;;;;93.18;63.13;;;13.00;99.90;;;;;;4978941;28;20131;-85
2023/04/16 07:30:56;;;;;;;104.18;69.72;;;11.70;99.90;;;;;;4989410;28;20119;-85
2023/04/16 07:33:22;;;;;;;103.00;71.57;;;11.70;99.90;;;;;;5003430;28;20145;-85
2023/04/16 07:35:48;;;;;;;88.68;56.00;;;11.90;99.90;;;;;;4995148;28;20557;-85
2023/04/16 07:38:15;;;;;;;101.13;70.10;;;12.60;99.90;;;;;;5006442;28;20061;-85
2023/04/16 07:40:40;;;;;;;88.28;64.93;;;11.90;99.90;;;;;;4985699;28;20039;-85
2023/04/16 07:43:06;;;;;;;131.02;92.95;;;11.70;99.90;;;;;;4987526;28;20096;-85
2023/04/16 07:45:31;;;;;;;125.28;85.20;;;12.50;99.90;;;;;;5001727;28;20049;-85
2023/04/16 07:47:57;;;;;;;110.07;70.75;;;12.00;99.90;;;;;;5010272;28;20045;-85
2023/04/16 07:50:23;;;;;;;130.20;82.47;;;11.90;99.90;;;;;;4981794;28;20045;-85
2023/04/16 07:52:48;;;;;;;118.45;81.18;;;11.90;99.90;;;;;;4990811;28;20502;-85
2023/04/16 07:55:14;;;;;;;165.23;116.10;;;11.70;99.90;;;;;;5000541;28;20029;-85
2023/04/16 07:57:40;;;;;;;158.35;104.63;;;13.80;99.90;;;;;;5011864;28;20127;-85
2023/04/16 08:00:07;;;;;;;131.48;96.53;;;11.80;99.90;;;;;;5011276;28;20046;-85
2023/04/16 08:02:33;;;;;;;95.07;64.72;;;11.80;99.90;;;;;;4993779;28;20506;-85
2023/04/16 08:04:59;;;;;;;111.47;74.97;;;12.10;99.90;;;;;;4981094;28;20088;-85
2023/04/16 08:07:24;;;;;;;136.00;89.65;;;11.90;99.90;;;;;;4982980;28;20046;-85
2023/04/16 08:09:51;;;;;;;146.07;86.30;;;12.30;99.90;;;;;;4994981;28;20662;-84
2023/04/16 08:12:17;;;;;;;121.97;77.65;;;12.00;99.90;;;;;;4992256;28;20387;-85
2023/04/16 08:14:44;;;;;;;102.88;74.65;;;11.90;99.90;;;;;;4997640;28;20041;-85
2023/04/16 08:17:16;;;;;;;104.43;77.47;;;13.60;99.90;;;;;;5008181;28;20042;-85
2023/04/16 08:19:42;;;;;;;131.65;93.88;;;12.00;99.90;;;;;;5005723;28;20045;-85
2023/04/16 08:22:08;;;;;;;116.43;81.30;;;11.90;99.90;;;;;;5004430;28;20467;-84
2023/04/16 08:24:34;;;;;;;146.27;113.93;;;12.10;99.90;;;;;;4984056;28;20125;-85
2023/04/16 08:26:59;;;;;;;88.75;67.88;;;13.00;99.90;;;;;;4986280;28;20045;-85
2023/04/16 08:29:25;;;;;;;131.68;89.28;;;12.30;99.90;;;;;;4995443;28;20398;-85
2023/04/16 08:31:52;;;;;;;140.80;100.43;;;12.00;99.90;;;;;;5002455;28;20038;-85
2023/04/16 08:34:18;;;;;;;66.20;49.40;;;10.40;99.90;;;;;;4978290;28;20057;-85
2023/04/16 08:36:44;;;;;;;129.43;80.63;;;13.70;99.90;;;;;;5005251;28;20034;-85
2023/04/16 08:39:10;;;;;;;108.38;78.03;;;12.80;99.90;;;;;;4993745;28;20067;-84
2023/04/16 08:41:39;;;;;;;93.47;76.63;;;11.90;99.90;;;;;;4991898;28;20046;-85
2023/04/16 08:44:07;;;;;;;106.32;64.50;;;13.60;99.90;;;;;;5003928;28;20045;-85
2023/04/16 08:46:36;;;;;;;112.10;85.90;;;12.10;99.90;;;;;;4977287;28;20133;-85
2023/04/16 08:49:05;;;;;;;67.95;52.97;;;12.20;99.90;;;;;;4990035;28;20046;-84
2023/04/16 08:51:34;;;;;;;89.13;62.22;;;12.20;99.90;;;;;;5009083;28;20042;-84
2023/04/16 08:54:07;;;;;;;105.70;64.90;;;12.10;99.90;;;;;;4989498;28;20042;-83
2023/04/16 08:56:36;;;;;;;138.45;92.90;;;12.40;99.90;;;;;;5003945;28;20044;-83
2023/04/16 08:59:04;;;;;;;150.45;107.15;;;14.00;99.90;;;;;;4979252;28;20502;-84
2023/04/16 09:01:31;;;;;;;121.82;76.72;;;12.30;99.90;;;;;;4998773;28;20046;-84
2023/04/16 09:04:00;;;;;;;119.55;89.85;;;14.20;99.90;;;;;;5012833;28;20033;-84
2023/04/16 09:06:27;;;;;;;134.02;91.95;;;12.50;99.90;;;;;;4994441;28;20037;-84
2023/04/16 09:08:53;;;;;;;119.20;87.95;;;14.30;99.90;;;;;;4988902;28;20041;-84
2023/04/16 09:11:19;;;;;;;102.22;72.82;;;14.10;99.90;;;;;;4988245;28;20066;-84
2023/04/16 09:13:45;;;;;;;142.30;85.00;;;12.30;99.90;;;;;;5004546;28;20046;-84
2023/04/16 09:16:12;;;;;;;167.77;102.43;;;14.00;99.90;;;;;;4993658;28;20045;-84
2023/04/16 09:18:38;;;;;;;125.50;96.35;;;13.60;99.90;;;;;;4985445;28;20046;-83
2023/04/16 09:21:04;;;;;;;114.18;89.15;;;12.30;99.90;;;;;;4991507;28;20042;-84
2023/04/16 09:23:30;;;;;;;116.57;83.88;;;12.70;99.90;;;;;;5009254;28;20046;-83
2023/04/16 09:25:58;;;;;;;110.93;80.32;;;13.90;99.90;;;;;;4988255;28;20042;-84
2023/04/16 09:28:50;;;;;;;132.68;93.38;;;14.00;99.90;;;;;;4993536;28;20042;-84
2023/04/16 09:31:17;;;;;;;138.25;105.88;;;12.70;99.90;;;;;;5002206;28;20528;-83
2023/04/16 09:33:59;;;;;;;128.77;87.80;;;14.60;99.90;;;;;;4986704;28;20091;-83
2023/04/16 09:36:26;;;;;;;127.28;84.10;;;12.80;99.90;;;;;;4985414;28;20041;-84
2023/04/16 09:38:53;;;;;;;108.50;76.60;;;12.80;99.90;;;;;;4996112;28;20054;-83
2023/04/16 09:41:23;;;;;;;127.32;88.78;;;12.70;99.90;;;;;;4986545;28;20544;-83
2023/04/16 09:44:00;;;;;;;87.90;74.47;;;12.90;99.90;;;;;;4984866;28;20502;-83
2023/04/16 09:46:41;;;;;;;83.43;63.17;;;12.80;99.90;;;;;;4996130;28;20038;-84
2023/04/16 09:49:20;;;;;;;121.22;84.53;;;12.80;99.90;;;;;;4978761;28;20481;-83
2023/04/16 09:51:48;;;;;;;124.28;100.45;;;12.60;99.90;;;;;;4985946;28;20480;-84
2023/04/16 09:54:14;;;;;;;119.72;81.53;;;12.90;99.90;;;;;;4995914;28;20469;-83
2023/04/16 09:56:45;;;;;;;117.82;91.78;;;13.90;99.90;;;;;;4997185;28;20046;-83
2023/04/16 09:59:18;;;;;;;109.50;86.25;;;12.90;99.90;;;;;;5002527;28;20486;-83
2023/04/16 10:01:45;;;;;;;152.23;108.22;;;12.80;99.90;;;;;;4987536;28;20076;-83
2023/04/16 10:04:11;;;;;;;94.25;73.20;;;12.90;99.90;;;;;;4995855;28;20046;-83
2023/04/16 10:06:37;;;;;;;101.22;76.38;;;14.30;99.90;;;;;;5003424;28;20413;-83
2023/04/16 10:09:07;;;;;;;139.88;118.35;;;12.80;99.90;;;;;;4985232;28;20148;-83
2023/04/16 10:11:33;;;;;;;119.47;101.25;;;14.80;99.90;;;;;;4989828;28;20046;-84
2023/04/16 10:13:58;;;;;;;120.55;89.93;;;14.40;99.90;;;;;;4989966;28;20044;-83
2023/04/16 10:16:25;;;;;;;106.85;88.43;;;14.50;99.90;;;;;;4989897;28;20034;-83
2023/04/16 10:18:51;;;;;;;72.70;57.97;;;13.20;99.90;;;;;;4992381;28;20042;-84
2023/04/16 10:21:18;;;;;;;121.07;91.38;;;13.10;99.90;;;;;;4972490;28;20073;-84
2023/04/16 10:23:43;;;;;;;109.85;88.50;;;14.60;99.90;;;;;;4992573;28;20082;-84
2023/04/16 10:26:09;;;;;;;111.80;86.45;;;14.30;99.90;;;;;;5007581;28;20498;-84
2023/04/16 10:28:35;;;;;;;121.10;91.68;;;15.20;99.90;;;;;;5001329;28;20195;-84
2023/04/16 10:31:07;;;;;;;151.15;121.57;;;13.30;99.90;;;;;;4988758;28;20046;-83
2023/04/16 10:33:34;;;;;;;126.97;102.15;;;14.70;99.90;;;;;;5003037;28;20433;-83
2023/04/16 10:36:26;;;;;;;92.82;75.75;;;13.10;99.90;;;;;;4989820;28;20038;-84
2023/04/16 10:38:56;;;;;;;100.78;77.32;;;13.30;99.90;;;;;;4991601;28;20174;-84
2023/04/16 10:41:22;;;;;;;102.47;80.88;;;13.00;99.90;;;;;;4973539;28;20046;-84
2023/04/16 10:43:49;;;;;;;98.82;69.05;;;13.20;99.90;;;;;;4973457;28;20395;-83
2023/04/16 10:46:31;;;;;;;86.18;70.18;;;14.60;99.90;;;;;;4993241;28;20042;-84
2023/04/16 10:49:01;;;;;;;127.07;96.90;;;13.30;99.90;;;;;;4995810;28;20053;-84
2023/04/16 10:51:30;;;;;;;116.90;97.50;;;13.20;99.90;;;;;;5004174;28;20045;-84
2023/04/16 10:54:01;;;;;;;97.40;79.78;;;13.00;99.90;;;;;;4990827;28;20096;-83
2023/04/16 10:56:30;;;;;;;97.93;84.75;;;13.10;99.90;;;;;;4983824;28;20035;-83
2023/04/16 10:58:56;;;;;;;124.15;98.28;;;13.60;99.90;;;;;;4982804;28;20081;-83
2023/04/16 11:01:32;;;;;;;109.60;87.93;;;13.90;99.90;;;;;;4986990;28;20149;-83
2023/04/16 11:04:19;;;;;;;106.45;93.07;;;12.80;99.90;;;;;;4980553;28;20076;-83
2023/04/16 11:07:03;;;;;;;101.05;78.63;;;14.30;99.90;;;;;;4964111;28;20060;-83
2023/04/16 11:09:50;;;;;;;159.52;120.95;;;12.90;99.90;;;;;;5008052;28;20037;-84
2023/04/16 11:12:18;;;;;;;128.75;96.10;;;13.10;99.90;;;;;;4989342;28;20050;-84
2023/04/16 11:14:47;;;;;;;118.00;104.38;;;14.10;99.90;;;;;;5008223;28;20125;-84
2023/04/16 11:17:13;;;;;;;97.40;78.93;;;13.10;99.90;;;;;;4983591;28;20125;-83
2023/04/16 11:19:41;;;;;;;79.65;65.63;;;14.30;99.90;;;;;;4990644;28;20528;-83
2023/04/16 11:22:07;;;;;;;86.68;67.68;;;12.80;99.90;;;;;;5007591;28;20090;-88
2023/04/16 11:24:32;;;;;;;126.05;93.75;;;14.10;99.90;;;;;;4990947;28;20121;-88
2023/04/16 11:26:59;;;;;;;93.10;77.32;;;13.10;99.90;;;;;;4983768;28;20050;-88
2023/04/16 11:29:24;;;;;;;95.45;85.47;;;13.70;99.90;;;;;;4999128;28;20054;-88
2023/04/16 11:31:51;;;;;;;112.20;95.93;;;14.70;99.90;;;;;;4989924;28;20049;-88
2023/04/16 11:34:18;;;;;;;112.03;92.35;;;12.70;99.90;;;;;;5003337;28;20076;-88
2023/04/16 11:36:45;;;;;;;75.13;66.93;;;14.20;99.90;;;;;;5004184;28;20038;-88
2023/04/16 11:39:10;;;;;;;131.60;106.55;;;13.20;99.90;;;;;;4992011;28;20056;-88
2023/04/16 11:41:43;;;;;;;143.90;106.40;;;13.30;99.90;;;;;;5028163;28;20581;-88
2023/04/16 11:44:26;;;;;;;117.20;84.28;;;13.60;99.90;;;;;;5011917;28;20046;-88
2023/04/16 11:46:53;;;;;;;96.80;84.07;;;13.90;99.90;;;;;;4975000;28;20042;-87
2023/04/16 11:49:31;;;;;;;106.07;93.68;;;13.30;99.90;;;;;;5004386;28;20038;-88
2023/04/16 11:51:57;;;;;;;124.22;98.78;;;13.30;99.90;;;;;;4980117;28;20121;-88
2023/04/16 11:54:23;;;;;;;89.47;80.15;;;15.20;99.90;;;;;;4981424;28;20122;-88
2023/04/16 11:56:51;;;;;;;111.70;86.85;;;13.40;99.90;;;;;;4997392;28;20386;-88
2023/04/16 11:59:21;;;;;;;98.50;74.00;;;13.90;99.90;;;;;;5003653;28;20046;-88
2023/04/16 12:01:56;;;;;;;95.03;83.50;;;13.40;99.90;;;;;;4993073;28;20088;-87
2023/04/16 12:04:26;;;;;;;88.40;69.43;;;15.30;99.90;;;;;;5013235;28;20113;-88
2023/04/16 12:07:07;;;;;;;120.43;101.40;;;13.60;99.90;;;;;;4988284;28;20050;-88
2023/04/16 12:09:36;;;;;;;97.72;82.43;;;13.80;99.90;;;;;;4987493;28;20120;-88
2023/04/16 12:12:02;;;;;;;79.57;70.95;;;15.20;99.90;;;;;;5015876;28;20068;-88
2023/04/16 12:14:29;;;;;;;117.05;81.75;;;13.50;99.90;;;;;;4995579;28;20448;-88
2023/04/16 12:16:55;;;;;;;102.50;82.72;;;13.60;99.90;;;;;;4987824;28;20109;-88